Time;durP1;ratioP1;P1;durP2;ratioP2;P2;SDS_P1;SDS_P2;PMS_P1;PMS_P2;Temp;Humidity;BMP_temperature;BMP_pressure;BME280_temperature;BME280_humidity;BME280_pressure;Samples;Min_cycle;Max_cycle;Signal;HPM_P1;HPM_P2
2023/12/08 05:32:16;;;;;;;0.10;0.10;;;9.80;91.90;;;;;;5094821;23;20039;-77
2023/12/08 05:34:42;;;;;;;0.10;0.10;;;9.80;91.90;;;;;;4992979;28;20031;-76
2023/12/08 05:37:07;;;;;;;0.10;0.10;;;9.80;91.90;;;;;;5015796;28;20065;-76
2023/12/08 05:39:33;;;;;;;0.10;0.10;;;9.80;91.90;;;;;;5016474;28;20513;-76
2023/12/08 05:41:59;;;;;;;0.10;0.10;;;9.80;91.80;;;;;;5016502;28;20041;-76
2023/12/08 05:44:24;;;;;;;0.10;0.10;;;9.80;91.80;;;;;;5015887;28;20018;-76
2023/12/08 05:46:51;;;;;;;0.20;0.20;;;9.80;91.80;;;;;;4998813;28;20524;-76
2023/12/08 05:49:19;;;;;;;0.15;0.15;;;9.80;91.90;;;;;;4998305;28;21085;-76
2023/12/08 05:51:45;;;;;;;0.20;0.20;;;9.90;91.80;;;;;;5015529;28;20121;-76
2023/12/08 05:54:10;;;;;;;0.10;0.10;;;9.80;91.80;;;;;;5015539;28;20062;-76
2023/12/08 05:56:36;;;;;;;0.10;0.10;;;9.90;91.90;;;;;;5016112;28;20030;-76
2023/12/08 05:59:02;;;;;;;0.20;0.20;;;9.90;91.70;;;;;;5016002;28;20022;-78
2023/12/08 06:01:28;;;;;;;0.30;0.30;;;9.80;91.70;;;;;;5014323;28;20026;-78
2023/12/08 06:03:53;;;;;;;0.10;0.10;;;9.80;91.70;;;;;;4998023;28;20029;-76
2023/12/08 06:06:19;;;;;;;0.10;0.10;;;9.90;91.60;;;;;;5015443;28;20133;-76
2023/12/08 06:08:44;;;;;;;0.25;0.20;;;9.90;91.70;;;;;;4998374;28;20088;-76
2023/12/08 06:11:10;;;;;;;0.10;0.10;;;9.90;91.70;;;;;;5017620;28;20029;-76
2023/12/08 06:13:36;;;;;;;0.10;0.10;;;9.80;91.60;;;;;;5004755;28;20039;-78
2023/12/08 06:16:03;;;;;;;0.10;0.10;;;9.90;91.70;;;;;;5002036;28;20489;-77
2023/12/08 06:18:29;;;;;;;0.13;0.13;;;9.90;91.50;;;;;;5014001;28;20026;-78
2023/12/08 06:20:55;;;;;;;0.10;0.10;;;9.90;91.60;;;;;;5014678;28;20567;-78
2023/12/08 06:23:20;;;;;;;0.20;0.20;;;9.90;91.60;;;;;;4980993;28;20441;-79
2023/12/08 06:25:46;;;;;;;0.20;0.20;;;9.90;91.50;;;;;;5013057;28;20486;-79
2023/12/08 06:28:12;;;;;;;0.20;0.20;;;9.90;91.50;;;;;;4996675;28;20029;-79
2023/12/08 06:30:38;;;;;;;0.10;0.10;;;9.90;91.50;;;;;;5015380;28;20046;-76
2023/12/08 06:33:04;;;;;;;0.10;0.10;;;9.90;91.40;;;;;;4989962;28;20022;-76
2023/12/08 06:35:29;;;;;;;0.20;0.20;;;9.90;91.40;;;;;;5014941;28;20027;-76
2023/12/08 06:37:55;;;;;;;0.10;0.10;;;9.90;91.40;;;;;;5013152;28;20026;-76
2023/12/08 06:40:20;;;;;;;0.10;0.10;;;9.90;91.30;;;;;;5013790;28;20064;-75
2023/12/08 06:42:46;;;;;;;0.10;0.10;;;9.80;91.30;;;;;;5014090;28;20118;-75
2023/12/08 06:45:13;;;;;;;0.10;0.10;;;9.80;91.40;;;;;;5014654;28;20388;-75
2023/12/08 06:47:39;;;;;;;0.20;0.20;;;9.90;91.50;;;;;;5014679;28;20034;-76
2023/12/08 06:50:05;;;;;;;0.10;0.10;;;9.90;91.40;;;;;;5015446;28;20026;-75
2023/12/08 06:52:32;;;;;;;0.13;0.13;;;9.90;91.50;;;;;;5014984;28;20382;-75
2023/12/08 06:54:57;;;;;;;0.10;0.10;;;9.80;91.30;;;;;;5015630;28;20084;-75
2023/12/08 06:57:23;;;;;;;0.10;0.10;;;9.90;91.30;;;;;;4998034;28;20121;-75
2023/12/08 06:59:48;;;;;;;0.13;0.13;;;9.80;91.20;;;;;;5016699;28;20033;-76
2023/12/08 07:02:15;;;;;;;0.20;0.20;;;9.90;91.40;;;;;;5019014;28;20036;-75
2023/12/08 07:04:40;;;;;;;0.20;0.20;;;9.90;91.20;;;;;;5000492;28;20037;-76
2023/12/08 07:07:06;;;;;;;0.13;0.13;;;9.80;91.00;;;;;;5009681;28;20048;-76
2023/12/08 07:09:31;;;;;;;0.10;0.10;;;9.80;91.20;;;;;;4977545;28;20056;-76
2023/12/08 07:11:57;;;;;;;0.10;0.10;;;9.80;91.20;;;;;;5012223;28;20450;-76
2023/12/08 07:14:23;;;;;;;0.20;0.20;;;9.70;91.00;;;;;;4993503;28;20042;-76
2023/12/08 07:16:48;;;;;;;0.10;0.10;;;9.70;91.30;;;;;;5019431;28;20026;-76
2023/12/08 07:19:14;;;;;;;0.10;0.10;;;9.70;91.10;;;;;;5018381;28;20063;-76
2023/12/08 07:21:43;;;;;;;0.20;0.20;;;9.70;91.10;;;;;;5019722;28;20076;-77
2023/12/08 07:24:10;;;;;;;0.20;0.20;;;9.70;91.00;;;;;;5010581;28;20033;-77
2023/12/08 07:26:36;;;;;;;0.10;0.10;;;9.70;91.30;;;;;;4999533;28;20042;-77
2023/12/08 07:29:02;;;;;;;0.13;0.13;;;9.70;91.10;;;;;;5011904;28;20030;-76
2023/12/08 07:31:27;;;;;;;0.17;0.17;;;9.60;91.00;;;;;;5004018;28;20417;-76
2023/12/08 07:33:53;;;;;;;0.10;0.10;;;9.60;91.10;;;;;;5018199;28;20042;-77
2023/12/08 07:36:19;;;;;;;0.10;0.10;;;9.50;91.10;;;;;;5027153;28;20500;-77
2023/12/08 07:38:44;;;;;;;0.10;0.10;;;9.40;91.10;;;;;;4999020;28;20034;-76
2023/12/08 07:41:10;;;;;;;0.10;0.10;;;9.40;91.30;;;;;;5012931;28;20018;-76
2023/12/08 07:43:36;;;;;;;0.10;0.10;;;9.30;90.80;;;;;;5027438;28;20029;-77
2023/12/08 07:46:02;;;;;;;0.10;0.10;;;9.30;90.80;;;;;;5004174;28;20018;-77
2023/12/08 07:48:27;;;;;;;0.10;0.10;;;9.20;90.90;;;;;;5017562;28;20034;-77
2023/12/08 07:50:54;;;;;;;0.10;0.10;;;9.20;91.00;;;;;;5027739;28;20040;-77
2023/12/08 07:53:20;;;;;;;0.20;0.20;;;9.10;90.70;;;;;;5018069;28;20503;-76
2023/12/08 07:55:45;;;;;;;0.10;0.10;;;9.10;91.10;;;;;;5004662;28;20116;-75
2023/12/08 07:58:11;;;;;;;0.10;0.10;;;9.10;90.90;;;;;;5017902;28;20030;-77
2023/12/08 08:00:37;;;;;;;0.10;0.10;;;9.00;91.00;;;;;;5028173;28;20029;-77
2023/12/08 08:03:04;;;;;;;0.10;0.10;;;9.00;90.90;;;;;;5009501;28;20751;-77
2023/12/08 08:05:29;;;;;;;0.10;0.10;;;9.00;91.10;;;;;;5003633;28;20026;-75
2023/12/08 08:07:55;;;;;;;0.20;0.20;;;9.00;91.30;;;;;;5009166;28;20615;-74
2023/12/08 08:10:21;;;;;;;0.10;0.10;;;9.10;91.40;;;;;;5013037;28;20030;-76
2023/12/08 08:12:47;;;;;;;0.10;0.10;;;9.10;91.40;;;;;;4996995;28;20027;-75
2023/12/08 08:15:12;;;;;;;0.20;0.20;;;9.10;91.30;;;;;;4998342;28;20049;-74
2023/12/08 08:17:38;;;;;;;0.10;0.10;;;9.00;90.90;;;;;;4995525;28;20038;-75
2023/12/08 08:20:05;;;;;;;0.10;0.10;;;9.00;91.00;;;;;;5000279;28;20018;-75
2023/12/08 08:22:32;;;;;;;0.20;0.20;;;9.00;91.30;;;;;;4999207;28;20041;-78
2023/12/08 08:24:58;;;;;;;0.15;0.15;;;9.00;91.10;;;;;;5017953;28;20442;-76
2023/12/08 08:27:25;;;;;;;0.10;0.10;;;9.00;91.00;;;;;;4996121;28;20058;-76
2023/12/08 08:29:50;;;;;;;0.10;0.10;;;9.00;91.20;;;;;;5012880;28;20086;-76
2023/12/08 08:32:17;;;;;;;0.10;0.10;;;9.10;91.10;;;;;;4994210;28;20534;-76
2023/12/08 08:34:43;;;;;;;0.13;0.13;;;9.10;91.20;;;;;;5006393;28;20466;-75
2023/12/08 08:37:09;;;;;;;0.20;0.20;;;9.20;91.00;;;;;;4993134;28;20150;-76
2023/12/08 08:39:34;;;;;;;0.10;0.10;;;9.20;91.00;;;;;;5006368;28;20041;-75
2023/12/08 08:42:00;;;;;;;0.10;0.10;;;9.20;91.10;;;;;;4991195;28;20034;-75
2023/12/08 08:44:27;;;;;;;0.10;0.10;;;9.30;90.80;;;;;;5008639;28;20022;-76
2023/12/08 08:46:53;;;;;;;0.17;0.17;;;9.30;90.80;;;;;;4991343;28;20023;-75
2023/12/08 08:49:19;;;;;;;0.10;0.10;;;9.40;90.90;;;;;;5008731;28;20471;-75
2023/12/08 08:51:44;;;;;;;0.17;0.17;;;9.40;90.70;;;;;;5016606;28;20045;-76
2023/12/08 08:54:10;;;;;;;0.10;0.10;;;9.40;90.80;;;;;;5012772;28;20026;-75
2023/12/08 08:56:36;;;;;;;0.15;0.15;;;9.30;90.60;;;;;;5009382;28;20038;-76
2023/12/08 08:59:03;;;;;;;0.13;0.13;;;9.20;90.50;;;;;;5015357;28;20023;-75
2023/12/08 09:01:28;;;;;;;0.10;0.10;;;9.30;90.90;;;;;;4990682;28;20038;-75
2023/12/08 09:03:54;;;;;;;0.10;0.10;;;9.30;90.80;;;;;;5007372;28;20045;-75
2023/12/08 09:06:20;;;;;;;0.10;0.10;;;9.30;90.80;;;;;;4997706;28;20028;-75
2023/12/08 09:08:45;;;;;;;0.10;0.10;;;9.40;90.90;;;;;;5016274;28;20080;-75
2023/12/08 09:11:11;;;;;;;0.13;0.13;;;9.50;90.60;;;;;;5035821;28;20485;-76
2023/12/08 09:13:37;;;;;;;0.13;0.13;;;9.50;90.50;;;;;;5015440;28;20025;-76
2023/12/08 09:16:04;;;;;;;0.10;0.10;;;9.50;90.40;;;;;;4989941;28;20133;-76
2023/12/08 09:18:30;;;;;;;0.10;0.10;;;9.50;90.40;;;;;;5008037;28;20025;-76
2023/12/08 09:20:55;;;;;;;0.10;0.10;;;9.50;90.60;;;;;;4991114;28;20513;-75
2023/12/08 09:23:21;;;;;;;0.10;0.10;;;9.60;90.60;;;;;;4990759;28;20021;-75
2023/12/08 09:25:47;;;;;;;0.10;0.10;;;9.60;90.50;;;;;;5005905;28;20025;-75
2023/12/08 09:28:13;;;;;;;0.20;0.20;;;9.50;90.40;;;;;;5008156;28;20014;-76
2023/12/08 09:30:38;;;;;;;0.10;0.10;;;9.70;90.70;;;;;;5007794;28;20050;-77
2023/12/08 09:33:04;;;;;;;0.10;0.10;;;9.70;90.60;;;;;;4986714;28;20026;-76
2023/12/08 09:35:30;;;;;;;0.20;0.20;;;9.70;90.60;;;;;;5007255;28;20053;-76
2023/12/08 09:37:56;;;;;;;0.20;0.20;;;9.70;90.60;;;;;;5005285;28;20019;-76
2023/12/08 09:40:24;;;;;;;0.10;0.10;;;9.70;90.50;;;;;;4991912;28;20022;-76
2023/12/08 09:42:57;;;;;;;0.20;0.20;;;9.80;90.60;;;;;;5008850;28;20053;-76
2023/12/08 09:45:23;;;;;;;0.10;0.10;;;9.90;90.50;;;;;;5005991;28;20018;-76
2023/12/08 09:47:54;;;;;;;0.13;0.10;;;9.90;90.50;;;;;;5007613;28;20018;-76
2023/12/08 09:50:20;;;;;;;0.20;0.20;;;9.90;90.50;;;;;;5008082;28;20037;-76
2023/12/08 09:52:46;;;;;;;0.13;0.13;;;10.00;90.50;;;;;;5007915;28;20026;-76
2023/12/08 09:55:12;;;;;;;0.13;0.13;;;10.00;90.40;;;;;;4989120;28;20034;-77
2023/12/08 09:57:41;;;;;;;0.10;0.10;;;10.10;90.40;;;;;;5008646;28;20045;-77
2023/12/08 10:00:13;;;;;;;0.10;0.10;;;10.20;90.30;;;;;;5010273;28;20030;-78
2023/12/08 10:02:40;;;;;;;0.10;0.10;;;10.20;90.30;;;;;;5012972;28;20026;-77
2023/12/08 10:05:06;;;;;;;0.15;0.15;;;10.30;90.20;;;;;;5006266;28;20030;-78
2023/12/08 10:07:34;;;;;;;0.13;0.10;;;10.30;90.00;;;;;;5007732;28;20056;-77
2023/12/08 10:10:03;;;;;;;0.10;0.10;;;10.30;90.00;;;;;;5012634;28;20027;-77
2023/12/08 10:12:29;;;;;;;0.10;0.10;;;10.30;89.90;;;;;;4988761;28;20113;-77
2023/12/08 10:14:57;;;;;;;0.10;0.10;;;10.30;90.00;;;;;;4991394;28;20049;-78
2023/12/08 10:17:24;;;;;;;0.20;0.20;;;10.40;89.90;;;;;;5006710;28;20026;-78
2023/12/08 10:19:53;;;;;;;0.10;0.10;;;10.40;89.70;;;;;;5006646;28;20081;-78
2023/12/08 10:22:19;;;;;;;0.10;0.10;;;10.40;89.70;;;;;;5003913;28;20497;-78
2023/12/08 10:24:46;;;;;;;0.10;0.10;;;10.50;89.70;;;;;;4992790;28;20030;-77
2023/12/08 10:27:11;;;;;;;0.10;0.10;;;10.60;89.80;;;;;;4990412;28;20219;-78
2023/12/08 10:29:37;;;;;;;0.10;0.10;;;10.60;89.70;;;;;;4991488;28;20088;-78
2023/12/08 10:32:04;;;;;;;0.17;0.17;;;10.60;89.50;;;;;;5007816;28;20098;-76
2023/12/08 10:34:31;;;;;;;0.10;0.10;;;10.70;89.40;;;;;;4991911;28;20037;-76
2023/12/08 10:36:57;;;;;;;0.10;0.10;;;10.70;89.60;;;;;;4992314;28;20137;-76
2023/12/08 10:39:24;;;;;;;0.10;0.10;;;10.70;89.50;;;;;;5011186;28;20033;-76
2023/12/08 10:41:51;;;;;;;0.20;0.20;;;10.80;89.40;;;;;;5007653;28;20030;-77
2023/12/08 10:44:23;;;;;;;0.10;0.10;;;10.80;89.40;;;;;;4989410;28;20501;-77
2023/12/08 10:46:49;;;;;;;0.10;0.10;;;10.80;89.20;;;;;;4990010;28;20450;-77
2023/12/08 10:49:19;;;;;;;0.10;0.10;;;10.90;89.30;;;;;;4993811;28;20030;-76
2023/12/08 10:51:49;;;;;;;0.20;0.20;;;10.90;89.30;;;;;;4987790;28;20084;-76
2023/12/08 10:54:16;;;;;;;0.10;0.10;;;11.00;89.20;;;;;;4994754;28;20040;-76
2023/12/08 10:56:46;;;;;;;0.10;0.10;;;11.00;89.10;;;;;;4989234;28;20032;-76
2023/12/08 10:59:24;;;;;;;0.10;0.10;;;11.10;89.20;;;;;;4989100;28;20026;-77
2023/12/08 11:01:52;;;;;;;0.13;0.13;;;11.10;89.20;;;;;;4992036;28;20033;-76
2023/12/08 11:04:21;;;;;;;0.10;0.10;;;11.20;89.20;;;;;;5008350;28;20036;-76
2023/12/08 11:07:10;;;;;;;0.10;0.10;;;11.10;88.90;;;;;;5008068;28;20105;-75
2023/12/08 11:09:39;;;;;;;0.10;0.10;;;11.20;88.90;;;;;;4994364;28;20839;-76
2023/12/08 11:12:07;;;;;;;0.25;0.20;;;11.20;88.80;;;;;;5012814;28;20501;-77
2023/12/08 11:14:47;;;;;;;0.10;0.10;;;11.20;88.90;;;;;;5021704;28;20641;-80
2023/12/08 11:17:20;;;;;;;0.10;0.10;;;11.30;88.70;;;;;;5018039;28;20083;-77
2023/12/08 11:19:46;;;;;;;0.10;0.10;;;11.30;88.80;;;;;;5014915;28;20152;-76
2023/12/08 11:22:12;;;;;;;0.10;0.10;;;11.40;88.70;;;;;;4998871;28;20115;-76
2023/12/08 11:24:40;;;;;;;0.10;0.10;;;11.40;88.80;;;;;;5005842;28;20050;-75
2023/12/08 11:27:30;;;;;;;0.10;0.10;;;11.40;88.50;;;;;;5015107;28;20895;-75
2023/12/08 11:30:40;;;;;;;0.10;0.10;;;11.40;88.70;;;;;;5015211;28;20041;-77
2023/12/08 11:33:12;;;;;;;0.10;0.10;;;11.50;88.50;;;;;;4934718;29;20052;-75
2023/12/08 11:35:38;;;;;;;0.15;0.15;;;11.50;88.50;;;;;;5006402;28;20568;-76
2023/12/08 11:38:04;;;;;;;0.10;0.10;;;11.50;88.60;;;;;;4997731;28;20076;-76
2023/12/08 11:40:29;;;;;;;0.10;0.10;;;11.70;88.60;;;;;;4989823;28;20018;-75
2023/12/08 11:42:56;;;;;;;0.20;0.20;;;11.70;88.60;;;;;;4995628;28;20042;-76
2023/12/08 11:45:22;;;;;;;0.17;0.17;;;11.70;88.40;;;;;;5015120;28;20068;-76
2023/12/08 11:47:48;;;;;;;0.10;0.10;;;11.80;88.40;;;;;;5000225;28;20052;-76
2023/12/08 11:50:14;;;;;;;0.10;0.10;;;11.80;88.40;;;;;;5018416;28;20026;-76
2023/12/08 11:52:42;;;;;;;0.10;0.10;;;11.90;88.40;;;;;;5017896;28;20033;-76
2023/12/08 11:55:12;;;;;;;0.20;0.20;;;11.90;88.00;;;;;;5018514;28;20026;-75
2023/12/08 11:57:42;;;;;;;0.10;0.10;;;11.90;88.00;;;;;;5009501;28;20048;-74
2023/12/08 12:00:10;;;;;;;0.10;0.10;;;11.90;87.70;;;;;;4986223;28;20108;-75
2023/12/08 12:02:40;;;;;;;0.20;0.20;;;12.00;87.90;;;;;;4990603;28;20075;-76
2023/12/08 12:05:06;;;;;;;0.10;0.10;;;12.00;87.90;;;;;;5014108;28;20034;-75
2023/12/08 12:07:34;;;;;;;0.20;0.20;;;12.10;87.80;;;;;;5016070;28;20033;-76
2023/12/08 12:10:02;;;;;;;0.13;0.13;;;12.20;87.80;;;;;;5019287;28;20054;-76
2023/12/08 12:12:30;;;;;;;0.10;0.10;;;12.10;87.60;;;;;;4999223;28;20049;-76
2023/12/08 12:15:00;;;;;;;0.10;0.10;;;12.10;87.40;;;;;;5017684;28;20018;-76
2023/12/08 12:17:28;;;;;;;0.10;0.10;;;12.20;87.60;;;;;;4999148;28;20132;-75
2023/12/08 12:19:55;;;;;;;0.13;0.13;;;12.20;87.60;;;;;;4999051;28;20030;-76
2023/12/08 12:22:21;;;;;;;0.10;0.10;;;12.30;87.70;;;;;;5016360;28;20030;-76
2023/12/08 12:24:48;;;;;;;0.10;0.10;;;12.30;87.20;;;;;;4998079;28;20049;-76
2023/12/08 12:27:14;;;;;;;0.10;0.10;;;12.40;86.90;;;;;;4997413;28;20037;-76
2023/12/08 12:29:43;;;;;;;0.10;0.10;;;12.30;86.10;;;;;;4993764;28;20022;-76
2023/12/08 12:32:12;;;;;;;0.20;0.20;;;12.30;86.40;;;;;;5006939;28;20413;-76
2023/12/08 12:34:38;;;;;;;0.10;0.10;;;12.30;86.30;;;;;;5010562;28;20489;-76
2023/12/08 12:37:08;;;;;;;0.10;0.10;;;12.30;86.30;;;;;;4990918;28;20022;-76
2023/12/08 12:39:34;;;;;;;0.10;0.10;;;12.30;85.90;;;;;;5007050;28;20026;-76
2023/12/08 12:42:01;;;;;;;0.15;0.15;;;12.30;85.90;;;;;;4992266;28;20023;-76
2023/12/08 12:44:40;;;;;;;0.10;0.10;;;12.30;86.30;;;;;;5009182;28;20641;-76
2023/12/08 12:47:09;;;;;;;0.10;0.10;;;12.30;85.80;;;;;;4992529;28;20026;-76
2023/12/08 12:49:38;;;;;;;0.10;0.10;;;12.40;86.10;;;;;;5008108;28;20626;-76
2023/12/08 12:52:22;;;;;;;0.10;0.10;;;12.30;85.70;;;;;;4993214;28;20084;-76
2023/12/08 12:54:48;;;;;;;0.10;0.10;;;12.40;85.90;;;;;;4993359;28;20033;-76
2023/12/08 12:57:15;;;;;;;0.10;0.10;;;12.50;85.60;;;;;;5011756;28;20481;-76
2023/12/08 12:59:56;;;;;;;0.10;0.10;;;12.40;85.20;;;;;;5005876;28;20026;-76
2023/12/08 13:02:28;;;;;;;0.10;0.10;;;12.40;85.30;;;;;;5008126;28;20421;-76
2023/12/08 13:04:55;;;;;;;0.10;0.10;;;12.30;85.10;;;;;;5007705;28;20022;-76
2023/12/08 13:07:21;;;;;;;0.10;0.10;;;12.40;84.90;;;;;;4997551;28;20084;-77
2023/12/08 13:09:53;;;;;;;0.20;0.20;;;12.40;84.90;;;;;;4995091;28;20069;-76
2023/12/08 13:12:18;;;;;;;0.10;0.10;;;12.50;85.00;;;;;;4992478;28;20045;-77
2023/12/08 13:14:44;;;;;;;0.10;0.10;;;12.50;84.40;;;;;;5001860;28;20022;-75
2023/12/08 13:17:10;;;;;;;0.20;0.20;;;12.50;85.20;;;;;;4994146;28;20386;-75
2023/12/08 13:19:35;;;;;;;0.17;0.17;;;12.40;84.90;;;;;;5006087;28;20147;-76
2023/12/08 13:22:01;;;;;;;0.10;0.10;;;12.50;85.50;;;;;;4998955;28;20022;-76
2023/12/08 13:24:27;;;;;;;0.20;0.20;;;12.50;85.40;;;;;;5007971;28;20030;-75
2023/12/08 13:26:52;;;;;;;0.10;0.10;;;12.60;84.80;;;;;;4987713;28;20021;-75
2023/12/08 13:29:18;;;;;;;0.17;0.17;;;12.60;85.10;;;;;;4989097;28;20482;-75
2023/12/08 13:31:43;;;;;;;0.10;0.10;;;12.60;85.10;;;;;;5005700;28;20061;-76
2023/12/08 13:34:09;;;;;;;0.10;0.10;;;12.70;84.50;;;;;;5004723;28;20082;-76
2023/12/08 13:36:36;;;;;;;0.10;0.10;;;12.80;84.80;;;;;;4991646;28;20037;-76
2023/12/08 13:39:03;;;;;;;0.10;0.10;;;12.80;84.10;;;;;;5011370;28;20041;-74
2023/12/08 13:41:29;;;;;;;0.10;0.10;;;12.80;83.60;;;;;;5013188;28;20129;-76
2023/12/08 13:43:55;;;;;;;0.10;0.10;;;12.80;84.20;;;;;;4991716;28;20058;-76
2023/12/08 13:46:21;;;;;;;0.10;0.10;;;12.80;83.60;;;;;;5003010;28;20038;-75
2023/12/08 13:48:47;;;;;;;0.10;0.10;;;12.80;82.30;;;;;;4973852;28;20958;-76
2023/12/08 13:51:14;;;;;;;0.10;0.10;;;12.60;83.20;;;;;;4993662;28;20249;-76
2023/12/08 13:53:40;;;;;;;0.10;0.10;;;12.50;82.80;;;;;;4986866;28;20113;-76
2023/12/08 13:56:06;;;;;;;0.10;0.10;;;12.30;83.00;;;;;;5004692;28;20040;-76
2023/12/08 13:58:32;;;;;;;0.10;0.10;;;12.20;83.20;;;;;;5005655;28;20025;-76
2023/12/08 14:00:58;;;;;;;0.10;0.10;;;12.10;84.10;;;;;;4983605;28;20117;-77
2023/12/08 14:03:25;;;;;;;0.10;0.10;;;12.00;84.00;;;;;;4986711;28;20026;-76
2023/12/08 14:05:51;;;;;;;0.10;0.10;;;11.90;84.10;;;;;;4993076;28;20061;-77
2023/12/08 14:08:16;;;;;;;0.10;0.10;;;11.90;84.90;;;;;;4984021;28;20433;-76
2023/12/08 14:10:42;;;;;;;0.10;0.10;;;11.90;84.30;;;;;;4992661;28;20583;-76
2023/12/08 14:13:08;;;;;;;0.10;0.10;;;11.80;84.40;;;;;;4988398;28;20018;-77
2023/12/08 14:15:33;;;;;;;0.20;0.20;;;11.80;85.30;;;;;;4992068;28;20041;-76
2023/12/08 14:17:59;;;;;;;0.10;0.10;;;11.80;85.10;;;;;;5006578;28;20054;-76
2023/12/08 14:20:24;;;;;;;0.10;0.10;;;11.90;85.10;;;;;;5008998;28;20418;-76
2023/12/08 14:22:51;;;;;;;0.10;0.10;;;11.90;84.60;;;;;;5007114;28;20022;-76
2023/12/08 14:25:17;;;;;;;0.10;0.10;;;12.00;85.40;;;;;;4998735;28;20022;-76
2023/12/08 14:27:42;;;;;;;0.10;0.10;;;12.00;84.90;;;;;;5012518;28;20033;-76
2023/12/08 14:30:10;;;;;;;0.20;0.20;;;12.10;84.70;;;;;;4992152;28;20025;-76
2023/12/08 14:32:36;;;;;;;0.10;0.10;;;12.20;84.20;;;;;;5005795;28;20068;-76
2023/12/08 14:35:02;;;;;;;0.10;0.10;;;12.20;84.10;;;;;;5006399;28;20117;-76
2023/12/08 14:37:28;;;;;;;0.10;0.10;;;12.30;84.90;;;;;;5006661;28;20486;-76
2023/12/08 14:39:54;;;;;;;0.10;0.10;;;12.20;84.00;;;;;;5006564;28;20038;-76
2023/12/08 14:42:19;;;;;;;0.10;0.10;;;12.20;84.60;;;;;;5006582;28;20030;-76
2023/12/08 14:44:45;;;;;;;0.10;0.10;;;12.30;84.30;;;;;;4988350;28;20037;-75
2023/12/08 14:47:10;;;;;;;0.10;0.10;;;12.20;84.50;;;;;;5003050;28;20026;-76
2023/12/08 14:49:36;;;;;;;0.10;0.10;;;12.20;84.80;;;;;;5006963;28;20045;-83
2023/12/08 14:52:03;;;;;;;0.10;0.10;;;12.10;84.90;;;;;;5003704;28;20026;-86
2023/12/08 14:54:29;;;;;;;0.10;0.10;;;12.10;84.80;;;;;;5005253;28;20099;-85
2023/12/08 14:56:55;;;;;;;0.10;0.10;;;12.10;85.30;;;;;;5009502;28;20034;-80
2023/12/08 14:59:20;;;;;;;0.10;0.10;;;12.20;84.00;;;;;;4993170;28;20095;-81
2023/12/08 15:01:46;;;;;;;0.10;0.10;;;12.20;84.80;;;;;;4981891;28;20030;-79
2023/12/08 15:04:11;;;;;;;0.10;0.10;;;12.20;84.10;;;;;;5002969;28;20030;-78
2023/12/08 15:06:37;;;;;;;0.10;0.10;;;12.20;83.80;;;;;;4990633;28;20049;-79
2023/12/08 15:09:06;;;;;;;0.10;0.10;;;12.00;83.70;;;;;;4989859;28;20028;-79
2023/12/08 15:11:32;;;;;;;0.10;0.10;;;12.00;84.20;;;;;;5020631;28;20030;-81
2023/12/08 15:13:57;;;;;;;0.10;0.10;;;11.80;83.80;;;;;;4997794;28;20040;-78
2023/12/08 15:16:23;;;;;;;0.10;0.10;;;11.80;84.80;;;;;;5013536;28;20101;-80
2023/12/08 15:18:48;;;;;;;0.10;0.10;;;11.70;84.90;;;;;;4994950;28;20022;-79
2023/12/08 15:21:20;;;;;;;0.10;0.10;;;11.70;85.50;;;;;;5006849;28;20030;-79
2023/12/08 15:23:50;;;;;;;0.10;0.10;;;11.70;85.40;;;;;;5015763;28;20013;-79
2023/12/08 15:26:17;;;;;;;0.10;0.10;;;11.60;85.20;;;;;;5014120;28;20026;-80
2023/12/08 15:28:43;;;;;;;0.10;0.10;;;11.50;85.60;;;;;;5013944;28;20022;-79
2023/12/08 15:31:10;;;;;;;0.10;0.10;;;11.50;86.20;;;;;;5012819;28;20432;-79
2023/12/08 15:33:38;;;;;;;0.15;0.15;;;11.40;86.20;;;;;;4993196;28;20042;-79
2023/12/08 15:36:07;;;;;;;0.15;0.15;;;11.40;86.20;;;;;;5009205;28;20034;-80
2023/12/08 15:38:33;;;;;;;0.10;0.10;;;11.40;86.00;;;;;;4991397;28;20034;-80
2023/12/08 15:41:01;;;;;;;0.10;0.10;;;11.30;85.90;;;;;;4992582;28;20041;-80
2023/12/08 15:43:29;;;;;;;0.10;0.10;;;11.40;86.10;;;;;;5007279;28;20080;-80
2023/12/08 15:45:55;;;;;;;0.10;0.10;;;11.40;85.30;;;;;;5002077;28;20058;-80
2023/12/08 15:48:22;;;;;;;0.10;0.10;;;11.40;85.50;;;;;;4999989;28;20034;-80
2023/12/08 15:50:48;;;;;;;0.10;0.10;;;11.40;85.60;;;;;;5002959;28;20050;-80
2023/12/08 15:53:14;;;;;;;0.10;0.10;;;11.30;85.80;;;;;;5002483;28;20101;-80
2023/12/08 15:55:40;;;;;;;0.10;0.10;;;11.30;85.80;;;;;;5004576;28;20057;-81
2023/12/08 15:58:05;;;;;;;0.10;0.10;;;11.40;85.60;;;;;;4998593;28;20082;-79
2023/12/08 16:00:31;;;;;;;0.10;0.10;;;11.50;86.00;;;;;;5011772;28;20037;-80
2023/12/08 16:02:57;;;;;;;0.10;0.10;;;11.50;85.80;;;;;;5009402;28;20065;-80
2023/12/08 16:05:23;;;;;;;0.13;0.13;;;11.50;85.30;;;;;;5009577;28;20209;-81
2023/12/08 16:07:48;;;;;;;0.10;0.10;;;11.50;85.60;;;;;;5008635;28;20110;-80
2023/12/08 16:10:14;;;;;;;0.10;0.10;;;11.40;85.00;;;;;;5014235;28;20026;-80
2023/12/08 16:12:40;;;;;;;0.10;0.10;;;11.30;85.40;;;;;;5013104;28;20022;-78
2023/12/08 16:15:08;;;;;;;0.10;0.10;;;11.30;85.50;;;;;;4990499;28;20056;-79
2023/12/08 16:17:34;;;;;;;0.10;0.10;;;11.20;85.50;;;;;;5006481;28;20112;-80
2023/12/08 16:20:00;;;;;;;0.10;0.10;;;11.10;85.40;;;;;;5008241;28;20054;-80
2023/12/08 16:22:25;;;;;;;0.10;0.10;;;11.10;85.50;;;;;;4990916;28;20446;-80
2023/12/08 16:24:51;;;;;;;0.10;0.10;;;11.00;85.80;;;;;;5007764;28;20092;-80
2023/12/08 16:27:17;;;;;;;0.20;0.20;;;10.90;85.50;;;;;;4990982;28;20048;-80
2023/12/08 16:29:44;;;;;;;0.10;0.10;;;10.80;85.00;;;;;;5010284;28;20019;-80
2023/12/08 16:32:10;;;;;;;0.10;0.10;;;10.80;85.80;;;;;;4991269;28;20073;-80
2023/12/08 16:34:35;;;;;;;0.10;0.10;;;10.70;85.00;;;;;;4996776;28;20033;-80
2023/12/08 16:37:01;;;;;;;0.10;0.10;;;10.70;85.90;;;;;;5008424;28;20026;-79
2023/12/08 16:39:26;;;;;;;0.10;0.10;;;10.70;86.70;;;;;;5014894;28;20038;-79
2023/12/08 16:41:54;;;;;;;0.10;0.10;;;10.70;86.50;;;;;;5004981;28;20029;-79
2023/12/08 16:44:19;;;;;;;0.10;0.10;;;10.60;86.40;;;;;;5009435;28;20022;-79
2023/12/08 16:46:45;;;;;;;0.10;0.10;;;10.50;86.80;;;;;;5006921;28;20084;-80
2023/12/08 16:49:10;;;;;;;0.10;0.10;;;10.50;87.20;;;;;;4989793;28;20505;-79
2023/12/08 16:51:36;;;;;;;0.10;0.10;;;10.40;86.70;;;;;;4992734;28;20069;-79
2023/12/08 16:54:02;;;;;;;0.10;0.10;;;10.40;86.80;;;;;;5008064;28;20026;-79
2023/12/08 16:56:29;;;;;;;0.10;0.10;;;10.40;87.60;;;;;;5000279;28;20030;-79
2023/12/08 16:58:54;;;;;;;0.20;0.20;;;10.30;87.20;;;;;;4978817;28;20489;-79
2023/12/08 17:01:20;;;;;;;0.10;0.10;;;10.30;87.50;;;;;;4986097;28;20088;-79
2023/12/08 17:03:46;;;;;;;0.20;0.20;;;10.30;87.90;;;;;;5009194;28;20492;-78
2023/12/08 17:06:12;;;;;;;0.10;0.10;;;10.30;87.50;;;;;;4995564;28;20022;-79
2023/12/08 17:08:43;;;;;;;0.20;0.20;;;10.30;87.50;;;;;;4989211;28;20022;-79
2023/12/08 17:11:09;;;;;;;0.10;0.10;;;10.30;87.60;;;;;;4989676;28;20037;-79
2023/12/08 17:13:35;;;;;;;0.10;0.10;;;10.20;87.70;;;;;;5005754;28;20505;-79
2023/12/08 17:16:01;;;;;;;0.10;0.10;;;10.20;87.60;;;;;;5007577;28;20026;-79
2023/12/08 17:18:27;;;;;;;0.20;0.20;;;10.30;88.20;;;;;;5010020;28;20037;-80
2023/12/08 17:20:52;;;;;;;0.10;0.10;;;10.20;87.60;;;;;;5006742;28;20033;-81
2023/12/08 17:23:18;;;;;;;0.10;0.10;;;10.30;88.50;;;;;;5010373;28;20030;-80
2023/12/08 17:25:44;;;;;;;0.10;0.10;;;10.20;88.20;;;;;;5003845;28;20021;-80
2023/12/08 17:28:09;;;;;;;0.10;0.10;;;10.20;87.90;;;;;;5009866;28;20055;-79
2023/12/08 17:30:35;;;;;;;0.10;0.10;;;10.20;87.90;;;;;;4990731;28;20081;-80
2023/12/08 17:33:01;;;;;;;0.10;0.10;;;10.20;88.40;;;;;;4987855;28;20497;-78
2023/12/08 17:35:26;;;;;;;0.10;0.10;;;10.20;88.50;;;;;;5006454;28;20030;-79
2023/12/08 17:37:53;;;;;;;0.10;0.10;;;10.20;87.90;;;;;;4994649;28;20056;-79
2023/12/08 17:40:18;;;;;;;0.20;0.20;;;10.20;88.40;;;;;;5013109;28;20025;-79
2023/12/08 17:42:44;;;;;;;0.22;0.22;;;10.00;87.50;;;;;;5012723;28;20026;-78
2023/12/08 17:45:09;;;;;;;0.20;0.20;;;10.00;88.20;;;;;;4996003;28;20038;-78
2023/12/08 17:47:35;;;;;;;0.20;0.20;;;10.00;88.70;;;;;;5013953;28;20066;-78
2023/12/08 17:50:01;;;;;;;0.10;0.10;;;10.00;88.80;;;;;;5014036;28;20045;-77
2023/12/08 17:52:27;;;;;;;0.10;0.10;;;10.10;88.60;;;;;;5010040;28;20489;-78
2023/12/08 17:54:54;;;;;;;0.10;0.10;;;10.00;88.20;;;;;;5009801;28;20068;-78
2023/12/08 17:57:20;;;;;;;0.10;0.10;;;10.00;88.50;;;;;;5012236;28;20026;-79
2023/12/08 17:59:46;;;;;;;0.10;0.10;;;10.00;88.40;;;;;;5012253;28;20060;-79
2023/12/08 18:02:12;;;;;;;0.10;0.10;;;10.00;88.60;;;;;;4989402;28;20493;-79
2023/12/08 18:04:39;;;;;;;0.10;0.10;;;10.00;88.70;;;;;;4999128;28;20029;-78
2023/12/08 18:07:05;;;;;;;0.10;0.10;;;10.00;88.70;;;;;;5017703;28;20390;-78
2023/12/08 18:09:31;;;;;;;0.10;0.10;;;10.00;88.70;;;;;;5008555;28;20116;-77
2023/12/08 18:11:57;;;;;;;0.13;0.13;;;9.90;88.60;;;;;;5006546;28;20061;-77
2023/12/08 18:14:23;;;;;;;0.10;0.10;;;9.90;88.80;;;;;;5008117;28;20436;-77
2023/12/08 18:16:48;;;;;;;0.20;0.20;;;9.90;88.80;;;;;;5006183;28;20108;-77
2023/12/08 18:19:14;;;;;;;0.10;0.10;;;9.90;88.90;;;;;;5000183;28;20116;-80